sensor_id;sensor_type;location;lat;lon;timestamp;temperature;humidity
28725;DHT22;43472;48.980;9.646;2023-06-04T00:02:24;13.60;99.90
28725;DHT22;43472;48.980;9.646;2023-06-04T00:07:26;13.70;99.90
28725;DHT22;43472;48.980;9.646;2023-06-04T00:12:29;13.60;99.90
28725;DHT22;43472;48.980;9.646;2023-06-04T00:17:30;13.20;99.90
28725;DHT22;43472;48.980;9.646;2023-06-04T00:22:32;14.50;99.90
28725;DHT22;43472;48.980;9.646;2023-06-04T00:27:34;13.40;99.90
28725;DHT22;43472;48.980;9.646;2023-06-04T00:32:36;13.20;99.90
28725;DHT22;43472;48.980;9.646;2023-06-04T00:37:38;13.00;99.90
28725;DHT22;43472;48.980;9.646;2023-06-04T00:42:41;13.00;99.90
28725;DHT22;43472;48.980;9.646;2023-06-04T00:47:42;13.00;99.90
28725;DHT22;43472;48.980;9.646;2023-06-04T00:52:44;13.00;99.90
28725;DHT22;43472;48.980;9.646;2023-06-04T00:57:46;12.90;99.90
28725;DHT22;43472;48.980;9.646;2023-06-04T01:02:50;12.80;99.90
28725;DHT22;43472;48.980;9.646;2023-06-04T01:07:57;12.90;99.90
28725;DHT22;43472;48.980;9.646;2023-06-04T01:12:59;12.80;99.90
28725;DHT22;43472;48.980;9.646;2023-06-04T01:18:02;12.70;99.90
28725;DHT22;43472;48.980;9.646;2023-06-04T01:28:35;12.50;99.90
28725;DHT22;43472;48.980;9.646;2023-06-04T01:33:37;12.40;99.90
28725;DHT22;43472;48.980;9.646;2023-06-04T01:38:40;12.20;99.90
28725;DHT22;43472;48.980;9.646;2023-06-04T01:43:42;12.10;99.90
28725;DHT22;43472;48.980;9.646;2023-06-04T01:48:44;12.10;99.90
28725;DHT22;43472;48.980;9.646;2023-06-04T01:53:46;12.40;99.90
28725;DHT22;43472;48.980;9.646;2023-06-04T01:58:47;12.00;99.90
28725;DHT22;43472;48.980;9.646;2023-06-04T02:03:49;12.10;99.90
28725;DHT22;43472;48.980;9.646;2023-06-04T02:08:52;12.10;99.90
28725;DHT22;43472;48.980;9.646;2023-06-04T02:13:56;12.20;99.90
28725;DHT22;43472;48.980;9.646;2023-06-04T02:18:58;12.10;99.90
28725;DHT22;43472;48.980;9.646;2023-06-04T02:24:00;11.80;99.90
28725;DHT22;43472;48.980;9.646;2023-06-04T02:29:02;11.70;99.90
28725;DHT22;43472;48.980;9.646;2023-06-04T02:34:04;11.70;99.90
28725;DHT22;43472;48.980;9.646;2023-06-04T02:39:06;11.50;99.90
28725;DHT22;43472;48.980;9.646;2023-06-04T02:44:08;12.40;99.90
28725;DHT22;43472;48.980;9.646;2023-06-04T02:49:10;11.30;99.90
28725;DHT22;43472;48.980;9.646;2023-06-04T02:54:15;11.30;99.90
28725;DHT22;43472;48.980;9.646;2023-06-04T02:59:16;11.20;99.90
28725;DHT22;43472;48.980;9.646;2023-06-04T03:04:19;11.30;99.90
28725;DHT22;43472;48.980;9.646;2023-06-04T03:09:22;11.30;99.90
28725;DHT22;43472;48.980;9.646;2023-06-04T03:14:24;11.40;99.90
28725;DHT22;43472;48.980;9.646;2023-06-04T03:19:38;11.10;99.90
28725;DHT22;43472;48.980;9.646;2023-06-04T03:24:40;11.80;99.90
28725;DHT22;43472;48.980;9.646;2023-06-04T03:29:42;11.10;99.90
28725;DHT22;43472;48.980;9.646;2023-06-04T03:34:44;12.20;99.90
28725;DHT22;43472;48.980;9.646;2023-06-04T03:39:46;11.00;99.90
28725;DHT22;43472;48.980;9.646;2023-06-04T03:44:48;11.00;99.90
28725;DHT22;43472;48.980;9.646;2023-06-04T03:49:50;11.00;99.90
28725;DHT22;43472;48.980;9.646;2023-06-04T03:54:51;11.20;99.90
28725;DHT22;43472;48.980;9.646;2023-06-04T03:59:53;13.20;99.90
28725;DHT22;43472;48.980;9.646;2023-06-04T04:04:55;11.00;99.90
28725;DHT22;43472;48.980;9.646;2023-06-04T04:09:58;10.90;99.90
28725;DHT22;43472;48.980;9.646;2023-06-04T04:15:00;12.00;99.90
28725;DHT22;43472;48.980;9.646;2023-06-04T04:20:02;11.00;99.90
28725;DHT22;43472;48.980;9.646;2023-06-04T04:25:07;11.10;99.90
28725;DHT22;43472;48.980;9.646;2023-06-04T04:30:11;11.10;99.90
28725;DHT22;43472;48.980;9.646;2023-06-04T04:35:14;9.70;99.90
28725;DHT22;43472;48.980;9.646;2023-06-04T04:40:20;11.40;99.90
28725;DHT22;43472;48.980;9.646;2023-06-04T04:45:22;11.50;99.90
28725;DHT22;43472;48.980;9.646;2023-06-04T04:50:24;11.50;99.90
28725;DHT22;43472;48.980;9.646;2023-06-04T04:55:26;11.70;99.90
28725;DHT22;43472;48.980;9.646;2023-06-04T05:00:29;11.70;99.90
28725;DHT22;43472;48.980;9.646;2023-06-04T05:05:32;12.20;99.90
28725;DHT22;43472;48.980;9.646;2023-06-04T05:15:37;12.60;99.90
28725;DHT22;43472;48.980;9.646;2023-06-04T05:20:41;12.90;99.90
28725;DHT22;43472;48.980;9.646;2023-06-04T05:25:44;14.10;99.80
28725;DHT22;43472;48.980;9.646;2023-06-04T05:30:46;14.40;99.90
28725;DHT22;43472;48.980;9.646;2023-06-04T05:35:50;15.10;96.30
28725;DHT22;43472;48.980;9.646;2023-06-04T05:40:54;15.00;96.60
28725;DHT22;43472;48.980;9.646;2023-06-04T05:45:57;14.70;96.50
28725;DHT22;43472;48.980;9.646;2023-06-04T05:50:59;14.70;97.00
28725;DHT22;43472;48.980;9.646;2023-06-04T05:56:00;15.30;95.50
28725;DHT22;43472;48.980;9.646;2023-06-04T06:01:02;15.30;95.50
28725;DHT22;43472;48.980;9.646;2023-06-04T06:06:04;15.80;93.90
28725;DHT22;43472;48.980;9.646;2023-06-04T06:11:08;16.00;94.90
28725;DHT22;43472;48.980;9.646;2023-06-04T06:16:12;15.90;94.20
28725;DHT22;43472;48.980;9.646;2023-06-04T06:21:14;15.90;94.60
28725;DHT22;43472;48.980;9.646;2023-06-04T06:26:16;16.00;94.20
28725;DHT22;43472;48.980;9.646;2023-06-04T06:31:21;16.20;93.90
28725;DHT22;43472;48.980;9.646;2023-06-04T06:36:23;16.20;93.20
28725;DHT22;43472;48.980;9.646;2023-06-04T06:41:25;16.40;94.40
28725;DHT22;43472;48.980;9.646;2023-06-04T06:46:27;16.50;92.60
28725;DHT22;43472;48.980;9.646;2023-06-04T06:51:29;16.50;93.10
28725;DHT22;43472;48.980;9.646;2023-06-04T07:01:34;16.60;94.20
28725;DHT22;43472;48.980;9.646;2023-06-04T07:06:37;16.90;93.40
28725;DHT22;43472;48.980;9.646;2023-06-04T07:11:38;17.00;93.30
28725;DHT22;43472;48.980;9.646;2023-06-04T07:16:40;17.10;93.20
28725;DHT22;43472;48.980;9.646;2023-06-04T07:21:42;17.70;92.60
28725;DHT22;43472;48.980;9.646;2023-06-04T07:26:44;17.60;92.80
28725;DHT22;43472;48.980;9.646;2023-06-04T07:31:46;17.90;93.00
28725;DHT22;43472;48.980;9.646;2023-06-04T07:36:48;17.90;92.20
28725;DHT22;43472;48.980;9.646;2023-06-04T07:41:50;18.10;92.60
28725;DHT22;43472;48.980;9.646;2023-06-04T07:46:52;18.30;92.30
28725;DHT22;43472;48.980;9.646;2023-06-04T07:51:53;18.50;91.90
28725;DHT22;43472;48.980;9.646;2023-06-04T07:56:56;18.70;91.40
28725;DHT22;43472;48.980;9.646;2023-06-04T08:01:58;18.90;91.60
28725;DHT22;43472;48.980;9.646;2023-06-04T08:07:00;19.10;90.90
28725;DHT22;43472;48.980;9.646;2023-06-04T08:12:03;19.30;90.80
28725;DHT22;43472;48.980;9.646;2023-06-04T08:17:04;19.50;91.00
28725;DHT22;43472;48.980;9.646;2023-06-04T08:22:06;19.90;90.80
28725;DHT22;43472;48.980;9.646;2023-06-04T08:27:08;19.90;90.40
28725;DHT22;43472;48.980;9.646;2023-06-04T08:32:10;20.00;89.90
28725;DHT22;43472;48.980;9.646;2023-06-04T08:37:12;20.10;90.30
28725;DHT22;43472;48.980;9.646;2023-06-04T08:42:25;20.50;88.70
28725;DHT22;43472;48.980;9.646;2023-06-04T08:47:34;20.70;89.70
28725;DHT22;43472;48.980;9.646;2023-06-04T08:52:37;20.90;88.60
28725;DHT22;43472;48.980;9.646;2023-06-04T08:57:40;20.40;87.20
28725;DHT22;43472;48.980;9.646;2023-06-04T09:02:43;21.10;85.10
28725;DHT22;43472;48.980;9.646;2023-06-04T09:07:46;21.00;87.40
28725;DHT22;43472;48.980;9.646;2023-06-04T09:12:49;21.00;87.40
28725;DHT22;43472;48.980;9.646;2023-06-04T09:17:52;21.00;82.80
28725;DHT22;43472;48.980;9.646;2023-06-04T09:22:54;21.40;80.00
28725;DHT22;43472;48.980;9.646;2023-06-04T09:28:05;21.70;82.00
28725;DHT22;43472;48.980;9.646;2023-06-04T09:33:08;21.60;80.80
28725;DHT22;43472;48.980;9.646;2023-06-04T09:38:10;21.10;81.80
28725;DHT22;43472;48.980;9.646;2023-06-04T09:43:21;21.90;78.70
28725;DHT22;43472;48.980;9.646;2023-06-04T09:48:24;21.80;79.40
28725;DHT22;43472;48.980;9.646;2023-06-04T09:53:26;22.00;80.50
28725;DHT22;43472;48.980;9.646;2023-06-04T10:11:23;22.70;74.30
28725;DHT22;43472;48.980;9.646;2023-06-04T10:16:50;22.10;80.80
28725;DHT22;43472;48.980;9.646;2023-06-04T10:21:52;22.10;81.90
28725;DHT22;43472;48.980;9.646;2023-06-04T10:26:55;22.10;80.60
28725;DHT22;43472;48.980;9.646;2023-06-04T10:32:00;23.60;74.30
28725;DHT22;43472;48.980;9.646;2023-06-04T10:37:02;24.10;74.20
28725;DHT22;43472;48.980;9.646;2023-06-04T10:42:05;22.60;79.00
28725;DHT22;43472;48.980;9.646;2023-06-04T10:47:27;23.50;76.10
28725;DHT22;43472;48.980;9.646;2023-06-04T10:52:32;23.50;74.20
28725;DHT22;43472;48.980;9.646;2023-06-04T10:57:34;23.20;75.40
28725;DHT22;43472;48.980;9.646;2023-06-04T11:02:48;22.80;78.60
28725;DHT22;43472;48.980;9.646;2023-06-04T11:07:50;23.50;73.20
28725;DHT22;43472;48.980;9.646;2023-06-04T11:12:52;23.40;77.50
28725;DHT22;43472;48.980;9.646;2023-06-04T11:17:55;23.30;72.30
28725;DHT22;43472;48.980;9.646;2023-06-04T11:23:00;23.20;76.30
28725;DHT22;43472;48.980;9.646;2023-06-04T11:28:04;24.30;70.80
28725;DHT22;43472;48.980;9.646;2023-06-04T11:33:06;22.70;78.60
28725;DHT22;43472;48.980;9.646;2023-06-04T11:38:09;23.90;71.60
28725;DHT22;43472;48.980;9.646;2023-06-04T11:43:11;24.30;77.20
28725;DHT22;43472;48.980;9.646;2023-06-04T11:48:13;24.90;71.60
28725;DHT22;43472;48.980;9.646;2023-06-04T11:53:15;25.00;68.50
28725;DHT22;43472;48.980;9.646;2023-06-04T11:58:17;26.00;68.30
28725;DHT22;43472;48.980;9.646;2023-06-04T12:03:19;26.10;74.20
28725;DHT22;43472;48.980;9.646;2023-06-04T12:08:21;24.80;75.90
28725;DHT22;43472;48.980;9.646;2023-06-04T12:13:23;24.10;82.40
28725;DHT22;43472;48.980;9.646;2023-06-04T12:18:25;24.60;79.60
28725;DHT22;43472;48.980;9.646;2023-06-04T12:23:27;24.70;78.90
28725;DHT22;43472;48.980;9.646;2023-06-04T12:28:29;25.10;72.70
28725;DHT22;43472;48.980;9.646;2023-06-04T12:33:30;26.00;71.80
28725;DHT22;43472;48.980;9.646;2023-06-04T12:38:32;25.70;71.60
28725;DHT22;43472;48.980;9.646;2023-06-04T12:43:34;25.70;74.10
28725;DHT22;43472;48.980;9.646;2023-06-04T12:48:38;25.10;76.20
28725;DHT22;43472;48.980;9.646;2023-06-04T12:53:41;25.10;71.10
28725;DHT22;43472;48.980;9.646;2023-06-04T12:58:43;26.30;66.10
28725;DHT22;43472;48.980;9.646;2023-06-04T13:03:44;26.70;72.40
28725;DHT22;43472;48.980;9.646;2023-06-04T13:08:47;26.30;69.70
28725;DHT22;43472;48.980;9.646;2023-06-04T13:13:48;25.70;71.70
28725;DHT22;43472;48.980;9.646;2023-06-04T13:18:51;27.00;65.30
28725;DHT22;43472;48.980;9.646;2023-06-04T13:23:53;26.00;67.40
28725;DHT22;43472;48.980;9.646;2023-06-04T13:28:55;26.70;66.30
28725;DHT22;43472;48.980;9.646;2023-06-04T13:33:57;26.80;65.00
28725;DHT22;43472;48.980;9.646;2023-06-04T13:38:59;27.00;62.70
28725;DHT22;43472;48.980;9.646;2023-06-04T13:44:01;25.10;71.00
28725;DHT22;43472;48.980;9.646;2023-06-04T13:49:03;26.50;67.50
28725;DHT22;43472;48.980;9.646;2023-06-04T13:54:05;26.70;63.30
28725;DHT22;43472;48.980;9.646;2023-06-04T13:59:06;27.40;63.20
28725;DHT22;43472;48.980;9.646;2023-06-04T14:04:08;26.80;63.60
28725;DHT22;43472;48.980;9.646;2023-06-04T14:09:13;25.50;68.90
28725;DHT22;43472;48.980;9.646;2023-06-04T14:14:14;23.50;72.30
28725;DHT22;43472;48.980;9.646;2023-06-04T14:19:16;24.10;71.00
28725;DHT22;43472;48.980;9.646;2023-06-04T14:24:18;26.70;69.30
28725;DHT22;43472;48.980;9.646;2023-06-04T14:29:20;25.40;66.90
28725;DHT22;43472;48.980;9.646;2023-06-04T14:34:22;24.70;70.50
28725;DHT22;43472;48.980;9.646;2023-06-04T14:39:23;25.90;67.70
28725;DHT22;43472;48.980;9.646;2023-06-04T14:44:25;25.30;69.50
28725;DHT22;43472;48.980;9.646;2023-06-04T14:49:27;25.80;67.40
28725;DHT22;43472;48.980;9.646;2023-06-04T14:54:29;26.30;62.60
28725;DHT22;43472;48.980;9.646;2023-06-04T14:59:31;26.10;64.70
28725;DHT22;43472;48.980;9.646;2023-06-04T15:04:35;24.70;69.00
28725;DHT22;43472;48.980;9.646;2023-06-04T15:09:38;25.60;66.30
28725;DHT22;43472;48.980;9.646;2023-06-04T15:14:40;25.30;66.90
28725;DHT22;43472;48.980;9.646;2023-06-04T15:19:42;25.30;69.30
28725;DHT22;43472;48.980;9.646;2023-06-04T15:24:44;25.10;69.10
28725;DHT22;43472;48.980;9.646;2023-06-04T15:29:46;23.70;75.20
28725;DHT22;43472;48.980;9.646;2023-06-04T15:34:48;23.30;77.60
28725;DHT22;43472;48.980;9.646;2023-06-04T15:39:49;24.40;71.20
28725;DHT22;43472;48.980;9.646;2023-06-04T15:44:51;23.80;70.70
28725;DHT22;43472;48.980;9.646;2023-06-04T15:49:53;23.70;71.20
28725;DHT22;43472;48.980;9.646;2023-06-04T15:54:55;23.90;72.20
28725;DHT22;43472;48.980;9.646;2023-06-04T15:59:57;23.80;72.60
28725;DHT22;43472;48.980;9.646;2023-06-04T16:04:59;24.20;68.90
28725;DHT22;43472;48.980;9.646;2023-06-04T16:10:01;24.10;69.60
28725;DHT22;43472;48.980;9.646;2023-06-04T16:15:03;23.70;72.30
28725;DHT22;43472;48.980;9.646;2023-06-04T16:20:06;23.60;73.40
28725;DHT22;43472;48.980;9.646;2023-06-04T16:25:08;22.70;74.00
28725;DHT22;43472;48.980;9.646;2023-06-04T16:30:11;22.60;75.80
28725;DHT22;43472;48.980;9.646;2023-06-04T16:35:13;23.50;70.90
28725;DHT22;43472;48.980;9.646;2023-06-04T16:40:15;23.50;71.60
28725;DHT22;43472;48.980;9.646;2023-06-04T16:45:17;22.70;74.40
28725;DHT22;43472;48.980;9.646;2023-06-04T16:50:19;23.10;68.90
28725;DHT22;43472;48.980;9.646;2023-06-04T16:55:31;23.00;73.00
28725;DHT22;43472;48.980;9.646;2023-06-04T17:00:33;22.50;73.50
28725;DHT22;43472;48.980;9.646;2023-06-04T17:05:35;22.60;78.00
28725;DHT22;43472;48.980;9.646;2023-06-04T17:10:37;22.50;76.20
28725;DHT22;43472;48.980;9.646;2023-06-04T17:15:38;22.50;76.20
28725;DHT22;43472;48.980;9.646;2023-06-04T17:20:40;23.70;79.70
28725;DHT22;43472;48.980;9.646;2023-06-04T17:25:42;22.80;70.20
28725;DHT22;43472;48.980;9.646;2023-06-04T17:30:44;22.40;75.10
28725;DHT22;43472;48.980;9.646;2023-06-04T17:35:46;22.50;72.10
28725;DHT22;43472;48.980;9.646;2023-06-04T17:40:48;20.90;73.30
28725;DHT22;43472;48.980;9.646;2023-06-04T17:45:50;21.30;82.40
28725;DHT22;43472;48.980;9.646;2023-06-04T17:50:52;21.70;75.00
28725;DHT22;43472;48.980;9.646;2023-06-04T17:55:53;21.30;79.50
28725;DHT22;43472;48.980;9.646;2023-06-04T18:00:55;21.10;84.70
28725;DHT22;43472;48.980;9.646;2023-06-04T18:05:58;20.90;83.90
28725;DHT22;43472;48.980;9.646;2023-06-04T18:11:00;21.30;81.00
28725;DHT22;43472;48.980;9.646;2023-06-04T18:16:02;21.10;84.00
28725;DHT22;43472;48.980;9.646;2023-06-04T18:21:04;21.00;87.30
28725;DHT22;43472;48.980;9.646;2023-06-04T18:26:05;20.80;85.60
28725;DHT22;43472;48.980;9.646;2023-06-04T18:31:08;20.80;86.30
28725;DHT22;43472;48.980;9.646;2023-06-04T18:36:10;21.00;84.20
28725;DHT22;43472;48.980;9.646;2023-06-04T18:41:12;20.90;86.90
28725;DHT22;43472;48.980;9.646;2023-06-04T18:46:14;20.80;87.30
28725;DHT22;43472;48.980;9.646;2023-06-04T18:51:15;20.90;85.70
28725;DHT22;43472;48.980;9.646;2023-06-04T18:56:20;20.90;84.90
28725;DHT22;43472;48.980;9.646;2023-06-04T19:01:23;20.80;83.40
28725;DHT22;43472;48.980;9.646;2023-06-04T19:06:25;20.60;84.40
28725;DHT22;43472;48.980;9.646;2023-06-04T19:11:28;20.60;86.90
28725;DHT22;43472;48.980;9.646;2023-06-04T19:16:30;20.50;83.70
28725;DHT22;43472;48.980;9.646;2023-06-04T19:21:32;20.40;85.30
28725;DHT22;43472;48.980;9.646;2023-06-04T19:26:34;20.30;82.50
28725;DHT22;43472;48.980;9.646;2023-06-04T19:31:35;20.30;85.70
28725;DHT22;43472;48.980;9.646;2023-06-04T19:36:38;19.90;86.30
28725;DHT22;43472;48.980;9.646;2023-06-04T19:41:39;19.80;86.80
28725;DHT22;43472;48.980;9.646;2023-06-04T19:46:41;19.70;87.10
28725;DHT22;43472;48.980;9.646;2023-06-04T19:51:43;19.70;86.20
28725;DHT22;43472;48.980;9.646;2023-06-04T19:56:45;19.20;90.00
28725;DHT22;43472;48.980;9.646;2023-06-04T20:01:47;19.30;90.20
28725;DHT22;43472;48.980;9.646;2023-06-04T20:06:49;19.00;90.20
28725;DHT22;43472;48.980;9.646;2023-06-04T20:11:51;18.80;90.90
28725;DHT22;43472;48.980;9.646;2023-06-04T20:16:53;18.70;90.50
28725;DHT22;43472;48.980;9.646;2023-06-04T20:21:55;18.80;91.20
28725;DHT22;43472;48.980;9.646;2023-06-04T20:26:57;18.30;91.60
28725;DHT22;43472;48.980;9.646;2023-06-04T20:31:59;18.30;91.60
28725;DHT22;43472;48.980;9.646;2023-06-04T20:37:01;18.00;92.00
28725;DHT22;43472;48.980;9.646;2023-06-04T20:42:05;17.80;92.30
28725;DHT22;43472;48.980;9.646;2023-06-04T20:47:07;17.60;92.70
28725;DHT22;43472;48.980;9.646;2023-06-04T20:52:09;17.50;92.10
28725;DHT22;43472;48.980;9.646;2023-06-04T20:57:11;17.40;92.40
28725;DHT22;43472;48.980;9.646;2023-06-04T21:02:13;17.50;92.50
28725;DHT22;43472;48.980;9.646;2023-06-04T21:07:15;17.10;93.00
28725;DHT22;43472;48.980;9.646;2023-06-04T21:12:18;17.10;93.00
28725;DHT22;43472;48.980;9.646;2023-06-04T21:17:20;16.80;93.30
28725;DHT22;43472;48.980;9.646;2023-06-04T21:22:22;16.80;93.80
28725;DHT22;43472;48.980;9.646;2023-06-04T21:27:24;16.50;93.50
28725;DHT22;43472;48.980;9.646;2023-06-04T21:32:26;16.70;93.70
28725;DHT22;43472;48.980;9.646;2023-06-04T21:37:28;16.40;94.20
28725;DHT22;43472;48.980;9.646;2023-06-04T21:42:30;16.40;94.50
28725;DHT22;43472;48.980;9.646;2023-06-04T21:47:32;16.00;95.00
28725;DHT22;43472;48.980;9.646;2023-06-04T21:52:34;15.90;95.00
28725;DHT22;43472;48.980;9.646;2023-06-04T21:57:36;15.90;95.40
28725;DHT22;43472;48.980;9.646;2023-06-04T22:02:38;15.80;95.30
28725;DHT22;43472;48.980;9.646;2023-06-04T22:07:40;15.70;95.20
28725;DHT22;43472;48.980;9.646;2023-06-04T22:12:42;15.40;96.00
28725;DHT22;43472;48.980;9.646;2023-06-04T22:17:46;15.50;96.30
28725;DHT22;43472;48.980;9.646;2023-06-04T22:22:48;15.40;96.70
28725;DHT22;43472;48.980;9.646;2023-06-04T22:27:50;15.30;96.50
28725;DHT22;43472;48.980;9.646;2023-06-04T22:32:51;15.40;97.00
28725;DHT22;43472;48.980;9.646;2023-06-04T22:37:53;15.10;97.30
28725;DHT22;43472;48.980;9.646;2023-06-04T22:42:55;15.00;98.00
28725;DHT22;43472;48.980;9.646;2023-06-04T22:47:57;14.90;98.00
28725;DHT22;43472;48.980;9.646;2023-06-04T22:52:59;14.50;99.10
28725;DHT22;43472;48.980;9.646;2023-06-04T22:58:03;14.70;98.40
28725;DHT22;43472;48.980;9.646;2023-06-04T23:03:05;14.80;98.70
28725;DHT22;43472;48.980;9.646;2023-06-04T23:08:07;14.40;99.10
28725;DHT22;43472;48.980;9.646;2023-06-04T23:13:09;14.20;99.60
28725;DHT22;43472;48.980;9.646;2023-06-04T23:18:11;14.40;98.70
28725;DHT22;43472;48.980;9.646;2023-06-04T23:23:13;14.30;98.60
28725;DHT22;43472;48.980;9.646;2023-06-04T23:28:14;14.10;98.50
28725;DHT22;43472;48.980;9.646;2023-06-04T23:33:17;13.90;99.30
28725;DHT22;43472;48.980;9.646;2023-06-04T23:38:19;13.80;99.00
28725;DHT22;43472;48.980;9.646;2023-06-04T23:43:21;13.80;99.60
28725;DHT22;43472;48.980;9.646;2023-06-04T23:48:23;13.40;99.50
28725;DHT22;43472;48.980;9.646;2023-06-04T23:53:25;13.50;99.70
28725;DHT22;43472;48.980;9.646;2023-06-04T23:58:27;13.40;99.90
